Altamahaw, North Carolina
Current Conditions -  °F | °C
As of 1:54 PM on Friday 24 Oct 2014 (Local Time) from KBUY Reporting Station
Clear Clear  
Wind Chill: 68°   Ceiling: Unl
Heat Index: 68°   Visibility: 10mi
Dew Point: 42°   Wind: 5mph
Humidity: 39%   Direction: 320°NW
Pressure: 30"   Gusts: NA
Location:  36.18°N, 79.51°W
Report Text: KBUY 241754Z AUTO 32004KT 10SM CLR 20/06 A3000 RMK AO2 SLP157 T02000056 10200 20061 58022
Loading
Personal Weather Stations






























Interactive Weather Map
Tropical Storm Tracking
New forecast layout! Learn more

10-Day Weather Forecast

Advertisements
Track Severe Weather on mobile